Time;durP1;ratioP1;P1;durP2;ratioP2;P2;SDS_P1;SDS_P2;PMS_P1;PMS_P2;Temp;Humidity;BMP_temperature;BMP_pressure;BME280_temperature;BME280_humidity;BME280_pressure;Samples;Min_cycle;Max_cycle;Signal;HPM_P1;HPM_P2
2022/06/06 00:01:19;;;;;;;7.72;4.32;;;22.80;99.90;;;;;;4971860;28;20019;-68
2022/06/06 00:03:46;;;;;;;9.80;5.13;;;22.70;99.90;;;;;;4972368;28;20019;-69
2022/06/06 00:06:15;;;;;;;6.72;4.45;;;22.70;99.90;;;;;;4972312;28;20074;-68
2022/06/06 00:08:42;;;;;;;7.38;4.53;;;22.60;99.90;;;;;;4972183;28;20027;-69
2022/06/06 00:11:09;;;;;;;12.82;5.75;;;22.60;99.90;;;;;;4972181;28;20470;-69
2022/06/06 00:13:40;;;;;;;9.63;4.90;;;22.60;99.90;;;;;;4972045;28;20074;-68
2022/06/06 00:16:07;;;;;;;6.97;4.10;;;22.60;99.90;;;;;;4974276;28;20038;-63
2022/06/06 00:18:33;;;;;;;6.15;3.97;;;22.60;99.90;;;;;;4972276;28;20019;-67
2022/06/06 00:21:00;;;;;;;7.07;4.35;;;22.60;99.90;;;;;;4954788;28;20030;-68
2022/06/06 00:23:26;;;;;;;6.22;4.32;;;22.60;99.90;;;;;;4971970;28;20035;-68
2022/06/06 00:25:54;;;;;;;7.22;4.47;;;22.70;99.90;;;;;;4971896;28;20031;-68
2022/06/06 00:28:21;;;;;;;6.60;4.55;;;22.60;99.90;;;;;;4972339;28;20026;-67
2022/06/06 00:30:47;;;;;;;7.05;4.60;;;22.70;99.90;;;;;;4971588;28;20062;-67
2022/06/06 00:36:00;;;;;;;7.57;4.63;;;22.70;99.90;;;;;;4972046;28;20576;-68
2022/06/06 00:38:27;;;;;;;8.73;4.85;;;22.70;99.90;;;;;;4971673;28;20023;-69
2022/06/06 00:40:53;;;;;;;5.60;4.00;;;22.70;99.90;;;;;;4971521;28;20030;-68
2022/06/06 00:43:19;;;;;;;7.32;4.43;;;22.70;99.90;;;;;;4971561;28;20051;-68
2022/06/06 00:45:49;;;;;;;8.48;4.95;;;22.80;99.90;;;;;;4971751;28;20047;-68
2022/06/06 00:48:30;;;;;;;9.32;5.40;;;22.80;99.90;;;;;;4971695;28;20416;-68
2022/06/06 00:51:11;;;;;;;6.80;4.50;;;22.80;99.90;;;;;;4970044;28;20074;-68
2022/06/06 00:53:49;;;;;;;7.40;4.78;;;22.80;99.90;;;;;;4972203;28;20022;-68
2022/06/06 00:56:30;;;;;;;8.45;4.85;;;22.80;99.90;;;;;;4971475;28;20035;-67
2022/06/06 00:59:03;;;;;;;11.40;5.00;;;22.70;99.90;;;;;;4971239;28;20022;-69
2022/06/06 01:01:33;;;;;;;7.20;4.75;;;22.70;99.90;;;;;;4971237;28;20054;-67
2022/06/06 01:04:01;;;;;;;7.65;5.00;;;22.60;99.90;;;;;;4971026;28;20090;-69
2022/06/06 01:06:31;;;;;;;7.82;4.95;;;22.50;99.90;;;;;;4971430;28;20031;-68
2022/06/06 01:08:58;;;;;;;8.95;5.00;;;22.40;99.90;;;;;;4971702;28;20042;-68
2022/06/06 01:11:25;;;;;;;6.43;4.32;;;22.30;99.90;;;;;;4970977;28;20102;-69
2022/06/06 01:13:54;;;;;;;9.35;5.30;;;22.20;99.90;;;;;;4971529;28;20484;-67
2022/06/06 01:16:49;;;;;;;9.45;4.93;;;22.20;99.90;;;;;;4973096;28;20113;-68
2022/06/06 01:19:28;;;;;;;9.02;5.07;;;22.20;99.90;;;;;;4971335;28;20018;-67
2022/06/06 01:22:29;;;;;;;17.17;7.55;;;22.20;99.90;;;;;;4971275;28;20027;-68
2022/06/06 01:25:32;;;;;;;16.08;9.43;;;22.20;99.90;;;;;;4971637;28;20023;-66
2022/06/06 01:28:28;;;;;;;23.48;13.25;;;22.20;99.90;;;;;;4971362;28;20030;-70
2022/06/06 01:30:58;;;;;;;26.38;13.75;;;22.20;99.90;;;;;;4968182;28;20496;-66
2022/06/06 01:33:24;;;;;;;20.45;12.00;;;22.10;99.90;;;;;;4967698;28;20121;-68
2022/06/06 01:35:50;;;;;;;20.80;10.85;;;22.00;99.90;;;;;;4971420;28;20034;-67
2022/06/06 01:38:21;;;;;;;15.75;8.90;;;21.90;99.90;;;;;;4971309;28;20094;-66
2022/06/06 01:41:01;;;;;;;13.02;7.13;;;21.60;99.90;;;;;;4971061;28;20488;-69
2022/06/06 01:43:34;;;;;;;15.80;7.95;;;21.50;99.90;;;;;;4970701;28;20458;-66
2022/06/06 01:46:14;;;;;;;15.80;8.10;;;21.50;99.90;;;;;;4970705;28;20034;-69
2022/06/06 01:48:42;;;;;;;13.30;8.15;;;21.40;99.90;;;;;;4970928;28;20031;-69
2022/06/06 01:51:17;;;;;;;12.77;7.22;;;21.40;99.90;;;;;;4970901;28;20027;-69
2022/06/06 01:53:43;;;;;;;11.48;7.18;;;21.40;99.90;;;;;;4971078;28;20046;-69
2022/06/06 01:56:12;;;;;;;15.15;7.55;;;21.40;99.90;;;;;;4970914;28;20079;-69
2022/06/06 01:58:38;;;;;;;10.73;6.25;;;21.40;99.90;;;;;;4970614;28;20159;-68
2022/06/06 02:01:04;;;;;;;10.10;5.70;;;21.40;99.90;;;;;;4971081;28;20044;-69
2022/06/06 02:03:34;;;;;;;8.75;5.78;;;21.40;99.90;;;;;;4970959;28;20529;-68
2022/06/06 02:06:02;;;;;;;9.40;5.78;;;21.50;99.90;;;;;;4971289;28;20429;-68
2022/06/06 02:08:29;;;;;;;8.45;5.10;;;21.30;99.90;;;;;;4971087;28;20039;-69
2022/06/06 02:10:55;;;;;;;9.55;6.00;;;21.40;99.90;;;;;;4970804;28;20023;-67
2022/06/06 02:13:21;;;;;;;9.55;5.53;;;21.30;99.90;;;;;;4970674;28;20023;-68
2022/06/06 02:15:48;;;;;;;11.77;5.25;;;;;;;;;;4975712;28;20050;-69
2022/06/06 02:18:14;;;;;;;8.25;4.75;;;21.20;99.90;;;;;;4974500;28;20495;-67
2022/06/06 02:20:40;;;;;;;7.80;5.13;;;21.10;99.90;;;;;;4974289;28;20059;-68
2022/06/06 02:23:06;;;;;;;8.27;5.28;;;21.10;99.90;;;;;;4974476;28;20022;-66
2022/06/06 02:25:33;;;;;;;7.95;5.10;;;21.20;99.90;;;;;;4970444;28;20030;-68
2022/06/06 02:27:59;;;;;;;9.45;4.70;;;21.10;99.90;;;;;;4974121;28;20038;-66
2022/06/06 02:30:31;;;;;;;8.18;5.22;;;21.20;99.90;;;;;;4974086;28;20062;-68
2022/06/06 02:32:56;;;;;;;8.63;5.25;;;21.10;99.90;;;;;;4974494;28;20031;-69
2022/06/06 02:35:26;;;;;;;9.90;5.00;;;21.00;99.90;;;;;;4975228;28;20042;-69
2022/06/06 02:37:54;;;;;;;7.80;4.93;;;21.00;99.90;;;;;;4979540;28;20033;-64
2022/06/06 02:40:21;;;;;;;8.70;5.07;;;20.90;99.90;;;;;;4975486;28;20026;-68
2022/06/06 02:42:48;;;;;;;8.68;5.20;;;21.00;99.90;;;;;;4973476;28;20542;-68
2022/06/06 02:45:15;;;;;;;9.50;5.00;;;21.10;99.90;;;;;;4974842;28;20030;-65
2022/06/06 02:47:53;;;;;;;9.25;4.93;;;21.00;99.90;;;;;;4970683;28;20481;-69
2022/06/06 02:50:21;;;;;;;8.55;5.15;;;21.00;99.90;;;;;;4975246;28;20030;-69
2022/06/06 02:52:47;;;;;;;10.55;5.78;;;20.90;99.90;;;;;;4972838;28;20441;-68
2022/06/06 02:55:15;;;;;;;12.55;5.97;;;21.00;99.90;;;;;;4974982;28;20549;-68
2022/06/06 02:57:44;;;;;;;11.07;5.30;;;20.90;99.90;;;;;;4971497;28;20031;-69
2022/06/06 03:00:13;;;;;;;8.88;5.45;;;20.90;99.90;;;;;;4970596;28;20454;-69
2022/06/06 03:02:39;;;;;;;8.25;5.53;;;20.90;99.90;;;;;;4970012;28;20035;-69
2022/06/06 03:05:06;;;;;;;9.70;5.00;;;20.80;99.90;;;;;;4973706;28;20022;-68
2022/06/06 03:08:00;;;;;;;9.85;5.78;;;20.80;99.90;;;;;;4974262;28;20030;-67
2022/06/06 03:10:43;;;;;;;11.75;7.32;;;20.80;99.90;;;;;;4965746;28;20069;-68
2022/06/06 03:13:28;;;;;;;13.55;7.07;;;20.80;99.90;;;;;;4974625;28;20457;-69
2022/06/06 03:22:18;;;;;;;13.27;7.13;;;20.90;99.90;;;;;;4969558;28;20031;-68
2022/06/06 03:24:44;;;;;;;11.27;6.85;;;20.80;99.90;;;;;;4974327;28;20085;-68
2022/06/06 03:27:51;;;;;;;11.98;7.45;;;20.80;99.90;;;;;;4963001;28;20051;-68
2022/06/06 03:30:38;;;;;;;9.70;6.07;;;21.00;99.90;;;;;;4940778;29;20039;-69
2022/06/06 03:33:22;;;;;;;12.95;6.70;;;21.20;99.90;;;;;;4933816;29;20054;-69
2022/06/06 03:36:01;;;;;;;10.55;6.38;;;21.10;99.90;;;;;;4933521;29;20042;-69
2022/06/06 03:38:27;;;;;;;10.75;6.50;;;21.20;99.90;;;;;;4933325;29;20036;-70
2022/06/06 03:41:08;;;;;;;10.20;5.85;;;21.40;99.90;;;;;;4936033;29;20067;-69
2022/06/06 03:43:51;;;;;;;13.40;6.90;;;21.40;99.90;;;;;;4932834;29;20446;-68
2022/06/06 03:46:39;;;;;;;16.10;7.80;;;21.30;99.90;;;;;;4940161;29;20060;-69
2022/06/06 03:49:32;;;;;;;13.35;7.80;;;21.40;99.90;;;;;;4937157;29;20042;-67
2022/06/06 03:52:00;;;;;;;13.68;7.97;;;21.70;99.90;;;;;;4934659;28;20035;-69
2022/06/06 03:54:44;;;;;;;16.08;8.13;;;22.30;99.90;;;;;;4942404;29;20147;-70
2022/06/06 03:57:17;;;;;;;15.05;7.72;;;22.70;99.90;;;;;;4928670;29;20493;-70
2022/06/06 03:59:50;;;;;;;14.18;7.30;;;22.80;99.90;;;;;;4930310;28;20055;-69
2022/06/06 04:02:22;;;;;;;12.40;7.20;;;23.30;99.90;;;;;;4930386;29;20115;-67
2022/06/06 04:04:49;;;;;;;8.95;5.20;;;23.60;99.90;;;;;;4934724;28;20034;-68
2022/06/06 04:07:15;;;;;;;8.25;4.75;;;23.50;99.90;;;;;;4968916;28;20049;-69
2022/06/06 04:09:41;;;;;;;7.20;4.68;;;23.60;99.90;;;;;;4972069;28;20039;-68
2022/06/06 04:12:17;;;;;;;6.68;4.63;;;23.60;99.90;;;;;;4970495;28;20030;-68
2022/06/06 04:14:53;;;;;;;7.28;4.25;;;24.10;99.90;;;;;;4968488;28;20035;-67
2022/06/06 04:17:36;;;;;;;6.32;4.38;;;24.90;99.90;;;;;;4972299;28;20043;-66
2022/06/06 04:20:21;;;;;;;10.05;5.00;;;25.00;99.90;;;;;;4973050;28;20027;-62
2022/06/06 04:23:15;;;;;;;8.13;4.78;;;25.30;99.90;;;;;;4970824;28;20086;-66
2022/06/06 04:25:50;;;;;;;7.40;4.30;;;24.60;99.90;;;;;;4972808;28;20035;-67
2022/06/06 04:28:34;;;;;;;7.82;4.32;;;24.80;99.90;;;;;;4973265;28;20035;-68
2022/06/06 04:31:18;;;;;;;6.28;4.53;;;25.40;99.90;;;;;;4973007;28;20041;-68
2022/06/06 04:33:46;;;;;;;11.32;4.47;;;24.50;99.90;;;;;;4973278;28;20026;-67
2022/06/06 04:36:30;;;;;;;6.38;4.55;;;24.80;99.90;;;;;;4972770;28;20052;-68
2022/06/06 04:39:21;;;;;;;6.05;3.90;;;25.80;99.90;;;;;;4973141;28;20031;-69
2022/06/06 04:41:59;;;;;;;5.13;4.10;;;27.50;98.00;;;;;;4972893;28;20035;-69
2022/06/06 04:44:43;;;;;;;6.85;4.25;;;27.10;95.30;;;;;;4971779;28;20047;-69
2022/06/06 04:47:34;;;;;;;5.45;3.83;;;26.70;96.00;;;;;;4972896;28;20035;-69
2022/06/06 04:50:04;;;;;;;5.28;3.47;;;27.30;96.50;;;;;;4969115;28;20061;-68
2022/06/06 04:52:32;;;;;;;5.97;3.83;;;26.80;96.60;;;;;;4969892;28;20039;-67
2022/06/06 04:55:00;;;;;;;10.27;4.47;;;26.40;95.70;;;;;;4973067;28;20022;-69
2022/06/06 04:57:27;;;;;;;6.78;3.75;;;25.70;97.20;;;;;;4972748;28;20557;-69
2022/06/06 04:59:57;;;;;;;14.68;8.82;;;24.80;99.90;;;;;;4981636;28;20023;-69
2022/06/06 05:02:24;;;;;;;8.90;6.53;;;24.80;99.90;;;;;;4972838;28;20039;-69
2022/06/06 05:04:50;;;;;;;7.18;4.65;;;24.60;99.90;;;;;;4972788;28;20110;-69
2022/06/06 05:07:53;;;;;;;8.82;5.90;;;24.30;99.90;;;;;;4973185;28;20220;-67
2022/06/06 05:10:56;;;;;;;7.90;4.68;;;24.90;99.90;;;;;;4959498;28;20043;-68
2022/06/06 05:13:28;;;;;;;10.57;5.55;;;25.10;99.90;;;;;;4972300;28;20481;-69
2022/06/06 05:16:20;;;;;;;9.95;5.28;;;25.20;99.90;;;;;;4972152;28;20047;-68
2022/06/06 05:19:08;;;;;;;6.60;4.35;;;25.20;99.90;;;;;;4971953;28;20055;-69
2022/06/06 05:21:55;;;;;;;9.55;4.25;;;25.60;99.90;;;;;;4972490;28;20035;-69
2022/06/06 05:24:20;;;;;;;8.85;4.85;;;25.30;99.90;;;;;;4972444;28;20074;-68
2022/06/06 05:27:05;;;;;;;11.00;4.32;;;25.50;99.90;;;;;;4972312;28;20026;-69
2022/06/06 05:29:55;;;;;;;6.57;4.15;;;25.30;99.90;;;;;;4959193;28;20462;-65
2022/06/06 05:32:57;;;;;;;8.38;4.55;;;25.90;99.90;;;;;;4972570;28;20485;-69
2022/06/06 05:35:41;;;;;;;;;;;25.20;99.90;;;;;;4973279;28;20425;-68
2022/06/06 05:38:55;;;;;;;7.30;4.43;;;25.10;99.90;;;;;;4972109;28;20004;-68
2022/06/06 05:41:29;;;;;;;8.40;4.20;;;25.40;99.90;;;;;;4969650;28;20070;-69
2022/06/06 05:44:14;;;;;;;9.35;4.30;;;25.60;99.90;;;;;;4969344;28;20623;-69
2022/06/06 05:46:40;;;;;;;7.43;3.90;;;25.50;99.90;;;;;;4958387;28;20149;-68
2022/06/06 05:49:42;;;;;;;5.30;3.63;;;25.70;99.90;;;;;;4971341;28;20113;-69
2022/06/06 05:52:27;;;;;;;6.78;3.45;;;26.10;99.90;;;;;;4935359;29;20442;-70
2022/06/06 05:54:53;;;;;;;8.23;4.22;;;26.80;99.90;;;;;;4935214;28;20203;-69
2022/06/06 05:57:21;;;;;;;6.05;3.72;;;27.30;99.50;;;;;;4935218;29;20115;-70
2022/06/06 06:00:23;;;;;;;6.30;3.88;;;27.40;95.50;;;;;;4934762;29;20028;-70
2022/06/06 06:02:51;;;;;;;5.97;3.97;;;27.40;95.70;;;;;;4934674;29;20072;-69
2022/06/06 06:05:41;;;;;;;5.28;3.60;;;27.80;94.20;;;;;;4935278;29;20046;-70
2022/06/06 06:08:10;;;;;;;4.53;3.38;;;27.40;93.70;;;;;;4934093;28;20051;-69
2022/06/06 06:10:52;;;;;;;8.82;4.43;;;27.70;93.40;;;;;;4934621;29;20123;-70
2022/06/06 06:13:29;;;;;;;5.72;3.60;;;27.50;94.10;;;;;;4914232;29;20058;-70
2022/06/06 06:15:58;;;;;;;5.82;4.10;;;27.90;93.60;;;;;;4913858;29;20080;-69
2022/06/06 06:18:40;;;;;;;8.85;4.57;;;27.40;94.40;;;;;;4916079;29;20072;-69
2022/06/06 06:21:09;;;;;;;7.10;3.60;;;27.20;96.70;;;;;;4910301;29;20053;-70
2022/06/06 06:23:40;;;;;;;18.38;5.70;;;26.70;97.30;;;;;;4900303;29;20091;-70
2022/06/06 06:26:07;;;;;;;9.70;3.80;;;26.80;97.80;;;;;;4915823;29;20598;-70
2022/06/06 06:28:34;;;;;;;10.57;3.67;;;26.30;99.80;;;;;;4963997;28;20086;-71
2022/06/06 06:31:12;;;;;;;7.95;3.85;;;26.00;99.30;;;;;;4974914;28;20445;-68
2022/06/06 06:33:53;;;;;;;6.63;3.65;;;26.00;99.90;;;;;;4975420;28;20031;-71
2022/06/06 06:36:37;;;;;;;9.00;4.03;;;26.10;99.90;;;;;;4962036;28;20393;-71
2022/06/06 06:39:20;;;;;;;9.50;4.28;;;25.80;98.70;;;;;;4971742;28;20035;-70
2022/06/06 06:42:08;;;;;;;7.15;3.55;;;25.60;99.80;;;;;;4975511;28;20081;-69
2022/06/06 06:44:39;;;;;;;5.65;3.67;;;25.70;99.30;;;;;;4974659;28;20536;-71
2022/06/06 06:47:11;;;;;;;5.82;3.47;;;25.70;98.90;;;;;;4974966;28;20405;-71
2022/06/06 06:49:53;;;;;;;5.38;3.17;;;26.00;99.90;;;;;;4975158;28;20030;-70
2022/06/06 06:52:43;;;;;;;8.52;3.60;;;26.20;98.40;;;;;;4965836;28;20051;-71
2022/06/06 06:55:36;;;;;;;7.25;3.30;;;26.30;95.90;;;;;;4975173;28;20109;-70
2022/06/06 06:58:16;;;;;;;9.15;4.35;;;26.10;96.90;;;;;;4972535;28;20603;-70
2022/06/06 07:00:53;;;;;;;5.53;3.40;;;26.10;97.90;;;;;;4973798;28;20038;-71
2022/06/06 07:09:45;;;;;;;4.45;3.05;;;26.30;96.90;;;;;;4973878;28;20019;-70
2022/06/06 07:12:34;;;;;;;5.15;3.20;;;26.50;94.60;;;;;;4971659;28;20105;-66
2022/06/06 07:15:34;;;;;;;6.07;3.28;;;26.80;95.60;;;;;;4964914;28;20038;-70
2022/06/06 07:18:02;;;;;;;5.75;2.95;;;26.80;94.70;;;;;;4974000;28;20438;-71
2022/06/06 07:20:29;;;;;;;4.53;2.60;;;26.90;93.20;;;;;;4973871;28;20082;-70
2022/06/06 07:22:59;;;;;;;5.93;2.67;;;27.00;93.70;;;;;;4973383;28;20038;-70
2022/06/06 07:25:26;;;;;;;5.25;3.20;;;27.10;93.60;;;;;;4973534;28;20049;-69
2022/06/06 07:27:52;;;;;;;5.93;3.08;;;27.00;92.30;;;;;;4973657;28;20038;-71
2022/06/06 07:30:21;;;;;;;8.05;3.55;;;27.00;92.50;;;;;;4972150;28;20027;-71
2022/06/06 07:33:05;;;;;;;4.38;2.72;;;27.40;93.40;;;;;;4973552;28;20031;-70
2022/06/06 07:36:08;;;;;;;8.63;3.25;;;26.80;92.50;;;;;;4974243;28;20042;-70
2022/06/06 07:38:36;;;;;;;4.95;3.35;;;27.00;93.60;;;;;;4965454;28;20030;-71
2022/06/06 07:41:10;;;;;;;7.45;3.03;;;27.20;92.30;;;;;;4973818;28;20035;-71
2022/06/06 07:44:02;;;;;;;6.50;3.10;;;27.50;91.00;;;;;;4971606;28;20050;-68
2022/06/06 07:46:47;;;;;;;5.22;2.95;;;27.60;89.60;;;;;;4965401;28;20428;-71
2022/06/06 07:49:28;;;;;;;7.00;3.28;;;27.80;88.80;;;;;;4967845;28;20024;-69
2022/06/06 07:52:02;;;;;;;5.43;2.78;;;27.90;86.10;;;;;;4973481;28;20070;-72
2022/06/06 07:54:34;;;;;;;4.43;2.90;;;27.80;83.20;;;;;;4973025;28;20068;-71
2022/06/06 07:57:15;;;;;;;7.43;2.88;;;27.90;83.10;;;;;;4973766;28;20046;-71
2022/06/06 08:00:04;;;;;;;8.35;3.08;;;28.00;82.80;;;;;;4973410;28;21716;-71
2022/06/06 08:02:53;;;;;;;6.93;3.28;;;28.10;83.50;;;;;;4973397;28;20039;-70
2022/06/06 08:05:45;;;;;;;8.20;3.00;;;28.50;83.40;;;;;;4971227;28;20607;-70
2022/06/06 08:08:30;;;;;;;;;;;28.30;79.60;;;;;;4968181;28;20550;-66
2022/06/06 08:11:03;;;;;;;6.28;2.92;;;28.40;78.70;;;;;;4979371;28;19996;-68
2022/06/06 08:13:50;;;;;;;3.95;2.83;;;28.40;77.90;;;;;;4973068;28;20022;-67
2022/06/06 08:16:31;;;;;;;4.15;2.50;;;28.40;77.60;;;;;;4977187;28;20051;-67
2022/06/06 08:19:37;;;;;;;4.40;2.85;;;28.30;77.40;;;;;;4972390;28;20066;-70
2022/06/06 08:22:04;;;;;;;4.38;3.10;;;27.90;78.70;;;;;;4972925;28;20023;-70
2022/06/06 08:24:35;;;;;;;8.23;3.78;;;27.90;79.10;;;;;;4972890;28;20054;-66
2022/06/06 08:27:04;;;;;;;;;;;27.70;82.50;;;;;;4980291;28;20468;-71
2022/06/06 08:29:34;;;;;;;6.93;4.13;;;27.30;85.80;;;;;;4972945;28;19908;-70
2022/06/06 08:32:00;;;;;;;7.72;3.63;;;27.10;89.30;;;;;;4973251;28;20465;-71
2022/06/06 08:34:26;;;;;;;6.03;3.55;;;27.00;89.10;;;;;;4971787;28;20027;-70
2022/06/06 08:37:30;;;;;;;8.15;3.75;;;26.80;88.30;;;;;;4971992;28;20559;-69
2022/06/06 08:40:37;;;;;;;4.03;3.17;;;26.50;86.70;;;;;;4962095;28;20039;-71
2022/06/06 08:43:15;;;;;;;5.15;3.00;;;26.20;86.70;;;;;;4970254;28;20126;-69
2022/06/06 08:46:19;;;;;;;6.85;2.88;;;26.10;85.30;;;;;;4966626;28;20433;-65
2022/06/06 08:49:10;;;;;;;4.97;3.05;;;26.20;85.40;;;;;;4972744;28;20117;-69
2022/06/06 08:51:52;;;;;;;5.85;3.00;;;26.40;84.00;;;;;;4972728;28;20899;-70
2022/06/06 08:54:37;;;;;;;9.25;2.67;;;26.50;80.30;;;;;;4972225;28;20607;-70
2022/06/06 08:57:16;;;;;;;5.22;3.03;;;26.60;80.50;;;;;;4972623;28;20496;-69
2022/06/06 08:59:45;;;;;;;5.25;2.90;;;26.60;78.00;;;;;;4971862;28;20035;-65
2022/06/06 09:02:35;;;;;;;5.78;3.30;;;26.60;77.80;;;;;;4961574;28;20027;-70
2022/06/06 09:05:13;;;;;;;9.10;3.00;;;27.00;76.80;;;;;;4974777;28;20034;-68
2022/06/06 09:08:13;;;;;;;3.92;2.60;;;27.20;73.30;;;;;;4972688;28;20035;-69
2022/06/06 09:10:48;;;;;;;4.28;3.20;;;27.00;73.00;;;;;;4959626;28;20027;-71
2022/06/06 09:13:51;;;;;;;6.82;2.85;;;27.20;74.90;;;;;;4970984;28;20054;-70
2022/06/06 09:16:29;;;;;;;3.72;2.72;;;27.40;76.30;;;;;;4968859;28;20119;-65
2022/06/06 09:19:16;;;;;;;8.90;3.30;;;27.40;75.90;;;;;;4970917;28;20350;-70
2022/06/06 09:21:55;;;;;;;6.22;2.70;;;27.80;75.00;;;;;;4966516;28;20035;-71
2022/06/06 09:24:59;;;;;;;4.68;2.75;;;27.50;77.60;;;;;;4971681;28;20086;-71
2022/06/06 09:28:02;;;;;;;5.07;2.58;;;27.80;76.60;;;;;;4971013;28;20027;-70
2022/06/06 09:31:05;;;;;;;4.13;2.50;;;27.50;70.60;;;;;;4970521;28;20027;-69
2022/06/06 09:33:50;;;;;;;3.13;2.58;;;27.30;68.40;;;;;;4982767;28;20031;-71
2022/06/06 09:36:23;;;;;;;5.03;2.50;;;27.20;68.00;;;;;;4969287;28;20043;-67
2022/06/06 09:39:09;;;;;;;6.85;3.20;;;27.50;71.70;;;;;;4971824;28;20086;-70
2022/06/06 09:41:39;;;;;;;3.08;2.70;;;27.40;72.60;;;;;;4966747;28;20039;-69
2022/06/06 09:44:20;;;;;;;3.83;2.70;;;27.60;72.90;;;;;;4970258;28;20047;-70
2022/06/06 09:46:59;;;;;;;3.42;2.67;;;28.00;74.20;;;;;;4970515;28;20049;-70
2022/06/06 09:49:59;;;;;;;5.55;3.10;;;28.00;72.00;;;;;;4967072;28;20035;-69
2022/06/06 09:53:09;;;;;;;7.47;3.60;;;28.30;73.30;;;;;;4968404;28;20037;-70
2022/06/06 09:59:11;;;;;;;6.30;3.40;;;28.60;74.30;;;;;;4929617;29;20063;-68
2022/06/06 10:01:57;;;;;;;7.07;2.90;;;28.30;72.30;;;;;;4930308;29;20059;-69
2022/06/06 10:04:55;;;;;;;5.40;2.92;;;28.70;74.00;;;;;;4930309;29;20621;-70
2022/06/06 10:07:27;;;;;;;4.40;3.13;;;29.20;70.10;;;;;;4916675;29;20394;-70
2022/06/06 10:10:00;;;;;;;4.60;2.95;;;29.20;70.10;;;;;;4940933;29;20031;-69
2022/06/06 10:13:16;;;;;;;5.18;3.10;;;29.00;70.50;;;;;;4930480;29;20046;-70
2022/06/06 10:15:50;;;;;;;2.72;2.42;;;28.80;72.30;;;;;;4919807;29;20052;-69
2022/06/06 10:18:34;;;;;;;5.15;3.10;;;28.80;72.30;;;;;;4930183;29;20036;-68
2022/06/06 10:21:15;;;;;;;7.65;2.60;;;29.10;71.90;;;;;;4927300;29;20522;-71
2022/06/06 10:23:43;;;;;;;4.55;3.35;;;28.80;74.10;;;;;;4929109;29;20036;-69
2022/06/06 10:26:23;;;;;;;4.32;3.00;;;28.60;74.80;;;;;;4927579;29;20118;-71
2022/06/06 10:29:05;;;;;;;5.60;3.60;;;28.50;75.70;;;;;;4926337;29;20431;-70
2022/06/06 10:31:40;;;;;;;4.88;2.72;;;28.30;76.90;;;;;;4957465;28;20047;-70
2022/06/06 10:34:43;;;;;;;3.08;2.65;;;28.50;76.00;;;;;;4968635;28;20023;-71
2022/06/06 10:37:31;;;;;;;7.78;3.10;;;28.20;75.30;;;;;;4973764;28;20034;-70
2022/06/06 10:40:03;;;;;;;3.92;2.90;;;28.20;74.50;;;;;;4968118;28;20057;-71
2022/06/06 10:42:45;;;;;;;4.20;2.65;;;28.60;75.70;;;;;;4969615;28;20465;-71
2022/06/06 10:45:29;;;;;;;8.93;2.72;;;28.50;75.10;;;;;;4970125;28;20539;-69
2022/06/06 10:48:16;;;;;;;6.95;2.78;;;28.60;71.70;;;;;;4970463;28;20093;-69
2022/06/06 10:54:16;;;;;;;4.03;2.33;;;28.50;72.70;;;;;;4969887;28;20045;-71
2022/06/06 10:56:52;;;;;;;4.47;2.63;;;28.10;72.30;;;;;;4973830;28;20034;-71
2022/06/06 10:59:45;;;;;;;5.95;2.92;;;28.30;74.30;;;;;;4965399;28;20027;-71
2022/06/06 11:03:05;;;;;;;4.22;2.58;;;28.30;74.00;;;;;;4974751;28;20034;-70
2022/06/06 11:06:08;;;;;;;6.88;2.40;;;28.00;73.60;;;;;;4928154;29;20036;-71
2022/06/06 11:08:57;;;;;;;8.23;2.90;;;27.90;73.10;;;;;;4933504;29;20111;-70
2022/06/06 11:11:47;;;;;;;3.55;2.55;;;27.90;73.60;;;;;;4933572;29;20454;-70
2022/06/06 11:14:35;;;;;;;4.78;2.70;;;27.70;75.40;;;;;;4933474;29;20104;-70
2022/06/06 11:17:29;;;;;;;7.68;3.03;;;27.50;73.50;;;;;;4943009;29;20039;-70
2022/06/06 11:20:00;;;;;;;4.60;2.05;;;27.10;74.30;;;;;;4933060;29;20039;-70
2022/06/06 11:22:42;;;;;;;6.20;2.92;;;27.20;75.80;;;;;;4945637;29;20039;-70
2022/06/06 11:25:15;;;;;;;11.95;2.67;;;27.20;78.10;;;;;;4952686;29;20041;-70
2022/06/06 11:27:59;;;;;;;3.75;2.65;;;27.00;78.70;;;;;;4919728;29;20491;-70
2022/06/06 11:30:50;;;;;;;5.75;2.78;;;27.20;80.90;;;;;;4941442;29;20086;-70
2022/06/06 11:34:01;;;;;;;7.30;2.53;;;26.90;80.60;;;;;;4942137;29;20887;-71
2022/06/06 11:36:27;;;;;;;5.57;2.35;;;26.60;82.40;;;;;;4949147;29;20321;-67
2022/06/06 11:39:11;;;;;;;3.95;2.63;;;26.20;82.10;;;;;;4947263;28;20038;-71
2022/06/06 11:42:13;;;;;;;7.32;2.65;;;25.70;85.00;;;;;;4962096;28;20121;-71
2022/06/06 11:45:02;;;;;;;7.82;2.95;;;25.20;85.30;;;;;;4977103;28;20288;-71
2022/06/06 11:47:59;;;;;;;5.43;3.10;;;24.80;83.50;;;;;;4967416;28;20042;-66
2022/06/06 11:50:48;;;;;;;12.43;3.63;;;24.80;86.40;;;;;;4973614;28;20031;-71
2022/06/06 11:53:40;;;;;;;7.38;3.53;;;24.30;94.20;;;;;;4973948;28;20038;-70
2022/06/06 11:56:43;;;;;;;9.25;4.47;;;24.20;96.20;;;;;;4973076;28;20462;-70
2022/06/06 11:59:10;;;;;;;13.60;4.70;;;24.10;95.10;;;;;;4966988;28;20141;-71
2022/06/06 12:02:09;;;;;;;8.30;4.10;;;23.60;97.20;;;;;;4973330;28;20093;-71
2022/06/06 12:05:02;;;;;;;11.63;4.03;;;23.50;98.20;;;;;;4977275;28;20578;-69
2022/06/06 12:08:08;;;;;;;7.03;4.07;;;23.40;99.60;;;;;;4968737;28;20022;-70
2022/06/06 12:10:49;;;;;;;11.00;4.15;;;23.20;99.90;;;;;;4966651;28;20050;-67
2022/06/06 12:13:20;;;;;;;14.20;4.22;;;23.00;99.90;;;;;;4968813;28;20027;-70
2022/06/06 12:16:03;;;;;;;7.28;3.90;;;22.80;99.90;;;;;;4979930;28;20065;-70
2022/06/06 12:18:41;;;;;;;8.95;3.63;;;22.40;99.90;;;;;;4974014;28;20030;-64
2022/06/06 12:21:15;;;;;;;10.30;4.13;;;21.90;99.90;;;;;;4979235;28;20037;-69
2022/06/06 12:24:19;;;;;;;6.57;3.92;;;21.80;99.90;;;;;;4986259;28;20034;-67
2022/06/06 12:27:21;;;;;;;6.95;3.95;;;21.80;99.90;;;;;;4969741;28;20026;-68
2022/06/06 12:30:02;;;;;;;10.95;4.93;;;21.60;99.90;;;;;;4970661;28;20027;-71
2022/06/06 12:32:45;;;;;;;15.73;6.10;;;21.40;99.90;;;;;;4972815;28;20133;-71
2022/06/06 12:35:26;;;;;;;14.13;6.80;;;21.10;99.90;;;;;;4970659;28;20537;-70
2022/06/06 12:38:07;;;;;;;17.50;6.10;;;20.70;99.90;;;;;;4969809;28;20042;-65
2022/06/06 12:41:04;;;;;;;10.13;6.72;;;20.60;99.90;;;;;;4972641;28;20365;-66
2022/06/06 12:43:48;;;;;;;14.52;7.40;;;20.60;99.90;;;;;;4968781;28;20039;-70
2022/06/06 12:46:14;;;;;;;11.43;6.35;;;20.70;99.90;;;;;;4985322;28;20489;-69
2022/06/06 12:48:39;;;;;;;11.10;6.85;;;20.70;99.90;;;;;;4970296;28;20034;-70
2022/06/06 12:51:32;;;;;;;16.40;6.38;;;20.70;99.90;;;;;;4972271;28;20033;-70
2022/06/06 12:54:04;;;;;;;12.88;6.40;;;20.80;99.90;;;;;;4976394;28;20396;-70
2022/06/06 12:56:39;;;;;;;11.13;6.82;;;20.70;99.90;;;;;;4980441;28;20440;-70
2022/06/06 12:59:26;;;;;;;12.18;7.30;;;20.70;99.90;;;;;;4973582;28;20030;-68
2022/06/06 13:02:00;;;;;;;14.43;7.65;;;20.80;99.90;;;;;;4973995;28;20122;-70
2022/06/06 13:04:29;;;;;;;12.73;7.35;;;20.90;99.90;;;;;;4972248;28;20113;-69
2022/06/06 13:07:24;;;;;;;13.88;7.95;;;21.00;99.90;;;;;;4972198;28;20030;-70
2022/06/06 13:10:07;;;;;;;13.98;7.05;;;21.00;99.90;;;;;;4971270;28;20089;-70
2022/06/06 13:12:39;;;;;;;14.23;6.90;;;21.10;99.90;;;;;;4972167;28;20135;-70
2022/06/06 13:15:32;;;;;;;10.95;6.85;;;21.20;99.90;;;;;;4968739;28;20023;-70
2022/06/06 13:18:32;;;;;;;11.65;7.18;;;21.20;99.90;;;;;;4971908;28;20041;-69
2022/06/06 13:21:34;;;;;;;12.98;7.88;;;21.40;99.90;;;;;;4971925;28;20023;-70
2022/06/06 13:24:33;;;;;;;12.55;6.32;;;21.60;99.90;;;;;;4971699;28;20144;-71
2022/06/06 13:27:30;;;;;;;10.88;6.30;;;21.80;99.90;;;;;;4972312;28;20110;-71
2022/06/06 13:30:17;;;;;;;7.93;5.20;;;22.00;99.90;;;;;;4972396;28;20039;-71
2022/06/06 13:32:43;;;;;;;11.27;5.38;;;22.10;99.90;;;;;;4972293;28;20051;-71
2022/06/06 13:35:08;;;;;;;10.25;5.90;;;22.20;99.90;;;;;;4974406;28;20425;-69
2022/06/06 13:38:13;;;;;;;11.43;6.85;;;22.40;99.90;;;;;;4986865;28;20492;-70
2022/06/06 13:40:43;;;;;;;9.23;6.30;;;22.30;99.90;;;;;;4978430;28;20023;-66
2022/06/06 13:43:21;;;;;;;15.43;6.80;;;22.30;99.90;;;;;;4971898;28;20062;-69
2022/06/06 13:46:19;;;;;;;10.02;5.78;;;22.40;99.90;;;;;;4971991;28;20069;-68
2022/06/06 13:48:48;;;;;;;12.50;5.95;;;22.40;99.90;;;;;;4972206;28;20389;-69
2022/06/06 13:51:54;;;;;;;11.48;5.80;;;22.40;99.90;;;;;;4972216;28;20023;-70
2022/06/06 13:54:30;;;;;;;12.38;6.25;;;22.40;99.90;;;;;;4950331;28;20405;-69
2022/06/06 13:57:20;;;;;;;16.05;6.38;;;22.40;99.90;;;;;;4949818;29;20079;-70
2022/06/06 13:59:54;;;;;;;12.93;6.50;;;22.60;99.90;;;;;;4950374;29;20110;-70
2022/06/06 14:02:23;;;;;;;9.70;5.70;;;22.40;99.90;;;;;;4950767;29;20039;-70
2022/06/06 14:05:35;;;;;;;8.82;5.53;;;22.40;99.90;;;;;;4949863;29;20050;-68
2022/06/06 14:08:16;;;;;;;10.88;6.28;;;22.50;99.90;;;;;;4912344;29;20040;-69
2022/06/06 14:10:54;;;;;;;12.80;5.25;;;22.40;99.90;;;;;;4914950;29;20406;-70
2022/06/06 14:13:56;;;;;;;9.73;5.65;;;22.50;99.90;;;;;;4915785;29;20040;-69